createdAt,value
2019-05-17T00:04:07.178Z,15.28
2019-05-17T00:08:16.486Z,15.46
2019-05-17T00:12:24.424Z,15.58
2019-05-17T00:16:32.207Z,15.64
2019-05-17T00:20:39.912Z,15.50
2019-05-17T00:24:48.261Z,15.53
2019-05-17T00:28:56.559Z,15.54
2019-05-17T00:33:04.310Z,15.04
2019-05-17T00:37:12.667Z,14.74
2019-05-17T00:41:20.401Z,14.35
2019-05-17T00:45:29.677Z,13.96
2019-05-17T00:49:37.797Z,14.04
2019-05-17T00:53:46.827Z,13.94
2019-05-17T00:57:56.502Z,14.08
2019-05-17T01:02:06.954Z,14.34
2019-05-17T01:06:16.917Z,14.25
2019-05-17T01:10:27.245Z,14.25
2019-05-17T01:14:34.481Z,14.13
2019-05-17T01:18:42.048Z,14.16
2019-05-17T01:22:51.128Z,14.02
2019-05-17T01:26:58.749Z,14.06
2019-05-17T01:31:06.904Z,14.05
2019-05-17T01:35:16.763Z,14.05
2019-05-17T01:39:26.755Z,14.12
2019-05-17T01:43:36.598Z,14.10
2019-05-17T01:47:44.589Z,14.17
2019-05-17T01:51:52.449Z,14.49
2019-05-17T01:56:00.484Z,14.94
2019-05-17T02:00:09.172Z,14.91
2019-05-17T02:04:17.628Z,14.93
2019-05-17T02:08:26.855Z,14.87
2019-05-17T02:12:37.010Z,14.71
2019-05-17T02:16:46.736Z,14.63
2019-05-17T02:20:56.999Z,14.51
2019-05-17T02:25:04.353Z,14.37
2019-05-17T02:29:13.614Z,14.38
2019-05-17T02:33:23.542Z,14.40
2019-05-17T02:37:33.445Z,14.58
2019-05-17T02:41:43.069Z,14.56
2019-05-17T02:45:52.817Z,14.45
2019-05-17T02:50:00.435Z,14.20
2019-05-17T02:54:08.349Z,14.13
2019-05-17T02:58:16.704Z,14.28
2019-05-17T03:02:28.060Z,14.14
2019-05-17T03:06:34.439Z,14.28
2019-05-17T03:10:43.226Z,14.18
2019-05-17T03:14:52.871Z,14.25
2019-05-17T03:19:03.998Z,14.13
2019-05-17T03:23:12.623Z,14.53
2019-05-17T03:27:23.310Z,14.55
2019-05-17T03:31:36.161Z,14.82
2019-05-17T03:35:45.269Z,14.66
2019-05-17T03:39:49.648Z,14.19
2019-05-17T03:43:57.965Z,14.33
2019-05-17T03:48:06.798Z,14.32
2019-05-17T03:52:14.798Z,14.22
2019-05-17T03:56:23.050Z,14.18
2019-05-17T04:00:34.852Z,14.01
2019-05-17T04:04:42.952Z,13.94
2019-05-17T04:08:52.779Z,13.76
2019-05-17T04:12:59.706Z,13.70
2019-05-17T04:17:07.632Z,13.88
2019-05-17T04:21:15.327Z,13.77
2019-05-17T04:25:23.612Z,14.18
2019-05-17T04:29:33.211Z,14.30
2019-05-17T04:33:42.790Z,14.60
2019-05-17T04:37:53.073Z,15.11
2019-05-17T04:42:03.846Z,15.88
2019-05-17T04:46:12.995Z,16.50
2019-05-17T04:50:22.787Z,17.09
2019-05-17T04:54:33.090Z,17.42
2019-05-17T04:58:42.660Z,17.79
2019-05-17T05:02:49.102Z,17.87
2019-05-17T05:06:57.414Z,17.82
2019-05-17T05:11:05.533Z,17.96
2019-05-17T05:15:13.282Z,18.85
2019-05-17T05:19:22.345Z,18.85
2019-05-17T05:23:31.886Z,19.34
2019-05-17T05:27:42.294Z,19.63
2019-05-17T05:31:51.786Z,19.73
2019-05-17T05:36:02.057Z,19.95
2019-05-17T05:40:12.326Z,20.13
2019-05-17T05:44:21.533Z,20.26
2019-05-17T05:48:29.756Z,20.51
2019-05-17T05:52:37.978Z,20.80
2019-05-17T05:56:45.683Z,20.71
2019-05-17T06:00:53.899Z,20.87
2019-05-17T06:05:02.291Z,21.29
2019-05-17T06:09:12.029Z,21.11
2019-05-17T06:13:21.830Z,21.16
2019-05-17T06:17:31.706Z,21.08
2019-05-17T06:21:39.099Z,21.34
2019-05-17T06:25:47.198Z,21.72
2019-05-17T06:29:55.094Z,21.87
2019-05-17T06:34:03.330Z,22.21
2019-05-17T06:38:12.141Z,22.46
2019-05-17T06:42:21.682Z,22.67
2019-05-17T06:46:32.464Z,22.82
2019-05-17T06:50:43.071Z,23.44
2019-05-17T06:54:52.478Z,24.32
2019-05-17T06:59:00.442Z,24.69
2019-05-17T07:03:09.683Z,24.45
2019-05-17T07:07:26.970Z,24.32
2019-05-17T07:11:35.424Z,24.56
2019-05-17T07:15:47.630Z,25.72
2019-05-17T07:19:53.627Z,26.34
2019-05-17T07:24:01.888Z,26.35
2019-05-17T07:28:10.293Z,26.56
2019-05-17T07:32:19.914Z,27.29
2019-05-17T07:36:27.716Z,27.25
2019-05-17T07:40:36.454Z,27.46
2019-05-17T07:44:44.301Z,28.04
2019-05-17T07:48:52.187Z,28.04
2019-05-17T07:53:00.923Z,28.40
2019-05-17T07:57:10.330Z,28.45
2019-05-17T08:01:20.442Z,28.84
2019-05-17T08:05:29.602Z,29.29
2019-05-17T08:09:40.277Z,29.53
2019-05-17T08:13:50.278Z,29.40
2019-05-17T08:17:59.380Z,28.08
2019-05-17T08:22:09.636Z,28.43
2019-05-17T08:26:17.408Z,29.07
2019-05-17T08:30:25.875Z,29.34
2019-05-17T08:34:33.583Z,28.20
2019-05-17T08:38:42.071Z,27.67
2019-05-17T08:42:50.339Z,28.33
2019-05-17T08:46:59.476Z,28.05
2019-05-17T08:51:10.824Z,27.91
2019-05-17T08:55:20.468Z,25.93
2019-05-17T08:59:29.668Z,25.93
2019-05-17T09:03:37.582Z,24.30
2019-05-17T09:07:45.807Z,23.47
2019-05-17T09:11:54.393Z,23.47
2019-05-17T09:16:02.250Z,23.49
2019-05-17T09:20:11.187Z,23.27
2019-05-17T09:24:19.591Z,23.37
2019-05-17T09:28:29.831Z,23.24
2019-05-17T09:32:37.159Z,23.24
2019-05-17T09:36:45.738Z,22.80
2019-05-17T09:40:53.985Z,22.37
2019-05-17T09:45:01.787Z,22.11
2019-05-17T09:49:10.347Z,21.83
2019-05-17T09:53:20.146Z,21.87
2019-05-17T09:57:29.776Z,22.02
2019-05-17T10:01:39.449Z,22.36
2019-05-17T10:05:49.411Z,22.26
2019-05-17T10:09:59.558Z,21.89
2019-05-17T10:14:07.101Z,21.84
2019-05-17T10:18:14.738Z,21.91
2019-05-17T10:22:22.443Z,21.70
2019-05-17T10:26:31.046Z,21.82
2019-05-17T10:30:39.802Z,21.67
2019-05-17T10:34:49.496Z,21.98
2019-05-17T10:38:59.267Z,21.96
2019-05-17T10:43:09.532Z,22.21
2019-05-17T10:47:19.422Z,21.70
2019-05-17T10:51:26.400Z,21.44
2019-05-17T10:55:34.539Z,21.37
2019-05-17T10:59:42.147Z,21.14
2019-05-17T11:03:50.287Z,21.13
2019-05-17T11:07:59.953Z,20.94
2019-05-17T11:12:08.629Z,20.90
2019-05-17T11:16:16.860Z,21.04
2019-05-17T11:20:25.160Z,21.21
2019-05-17T11:24:33.078Z,21.15
2019-05-17T11:28:40.826Z,20.93
2019-05-17T11:32:49.521Z,20.90
2019-05-17T11:36:59.179Z,20.98
2019-05-17T11:41:20.582Z,20.87
2019-05-17T11:45:27.422Z,20.64
2019-05-17T11:49:28.370Z,20.58
2019-05-17T11:53:36.690Z,20.18
2019-05-17T11:57:44.794Z,20.02
2019-05-17T12:01:52.427Z,20.12
2019-05-17T12:06:00.624Z,19.93
2019-05-17T12:10:09.390Z,19.91
2019-05-17T12:14:17.463Z,19.86
2019-05-17T12:18:25.529Z,19.74
2019-05-17T12:22:33.399Z,19.58
2019-05-17T12:26:41.610Z,19.29
2019-05-17T12:30:49.935Z,19.18
2019-05-17T12:34:57.440Z,19.35
2019-05-17T12:39:06.620Z,19.43
2019-05-17T12:43:14.488Z,19.32
2019-05-17T12:47:22.634Z,19.23
2019-05-17T12:51:32.901Z,19.17
2019-05-17T12:55:40.088Z,19.23
2019-05-17T12:59:47.893Z,19.41
2019-05-17T13:03:57.343Z,19.39
2019-05-17T13:08:05.186Z,19.46
2019-05-17T13:12:13.474Z,19.30
2019-05-17T13:16:21.689Z,19.36
2019-05-17T13:20:30.103Z,19.29
2019-05-17T13:24:39.717Z,19.14
2019-05-17T13:28:47.359Z,19.38
2019-05-17T13:32:55.695Z,19.39
2019-05-17T13:37:03.999Z,19.08
2019-05-17T13:41:12.029Z,19.01
2019-05-17T13:45:20.055Z,18.93
2019-05-17T13:49:27.845Z,18.84
2019-05-17T13:53:36.773Z,18.92
2019-05-17T13:57:45.114Z,18.95
2019-05-17T14:01:52.804Z,19.08
2019-05-17T14:06:00.951Z,19.38
2019-05-17T14:10:24.510Z,19.36
2019-05-17T14:14:19.026Z,19.33
2019-05-17T14:18:26.932Z,19.16
2019-05-17T14:22:36.106Z,19.08
2019-05-17T14:26:44.498Z,18.95
2019-05-17T14:30:52.712Z,18.84
2019-05-17T14:35:00.525Z,18.88
2019-05-17T14:39:09.449Z,19.02
2019-05-17T14:43:17.649Z,19.01
2019-05-17T14:47:25.315Z,18.79
2019-05-17T14:51:33.269Z,19.01
2019-05-17T14:55:41.202Z,18.97
2019-05-17T14:59:49.506Z,19.04
2019-05-17T15:03:57.690Z,18.98
2019-05-17T15:08:05.451Z,19.17
2019-05-17T15:12:27.073Z,19.04
2019-05-17T15:16:24.080Z,19.14
2019-05-17T15:20:31.845Z,19.23
2019-05-17T15:24:40.096Z,19.27
2019-05-17T15:28:47.731Z,19.26
2019-05-17T15:32:55.896Z,19.29
2019-05-17T15:37:03.718Z,19.10
2019-05-17T15:41:12.253Z,19.17
2019-05-17T15:45:20.215Z,19.12
2019-05-17T15:49:28.466Z,19.38
2019-05-17T15:53:36.604Z,19.30
2019-05-17T15:57:44.245Z,19.25
2019-05-17T16:01:52.934Z,19.22
2019-05-17T16:06:00.851Z,19.15
2019-05-17T16:10:10.385Z,19.10
2019-05-17T16:14:18.104Z,19.12
2019-05-17T16:18:26.073Z,19.06
2019-05-17T16:22:34.346Z,19.03
2019-05-17T16:26:42.042Z,19.02
2019-05-17T16:30:50.259Z,19.08
2019-05-17T16:34:58.080Z,18.97
2019-05-17T16:39:08.440Z,18.92
2019-05-17T16:43:18.501Z,18.86
2019-05-17T16:47:26.362Z,18.78
2019-05-17T16:51:34.375Z,18.71
2019-05-17T16:55:42.669Z,18.73
2019-05-17T16:59:50.565Z,18.84
2019-05-17T17:03:58.789Z,18.68
2019-05-17T17:08:07.922Z,18.78
2019-05-17T17:12:16.149Z,18.85
2019-05-17T17:16:25.263Z,18.85
2019-05-17T17:20:33.204Z,18.73
2019-05-17T17:24:41.127Z,18.74
2019-05-17T17:28:48.933Z,18.65
2019-05-17T17:32:57.256Z,18.80
2019-05-17T17:37:05.374Z,18.81
2019-05-17T17:41:12.915Z,18.76
2019-05-17T17:45:22.364Z,18.80
2019-05-17T17:49:30.099Z,18.77
2019-05-17T17:53:38.341Z,18.84
2019-05-17T17:57:46.383Z,18.78
2019-05-17T18:01:56.322Z,18.85
2019-05-17T18:06:09.098Z,18.77
2019-05-17T18:10:29.321Z,18.88
2019-05-17T18:14:37.273Z,18.81
2019-05-17T18:18:45.481Z,18.87
2019-05-17T18:22:56.344Z,18.88
2019-05-17T18:27:04.066Z,18.80
2019-05-17T18:31:12.592Z,18.68
2019-05-17T18:35:20.307Z,18.81
2019-05-17T18:39:28.778Z,18.71
2019-05-17T18:43:36.539Z,18.62
2019-05-17T18:47:44.468Z,18.72
2019-05-17T18:51:52.686Z,18.77
2019-05-17T18:56:00.362Z,18.57
2019-05-17T19:00:09.736Z,18.60
2019-05-17T19:04:17.435Z,18.57
2019-05-17T19:08:25.432Z,18.64
2019-05-17T19:12:33.462Z,18.60
2019-05-17T19:16:41.156Z,18.73
2019-05-17T19:20:49.488Z,18.86
2019-05-17T19:24:57.716Z,18.82
2019-05-17T19:29:05.863Z,18.70
2019-05-17T19:33:13.940Z,19.03
2019-05-17T19:37:21.847Z,18.85
2019-05-17T19:41:30.592Z,18.74
2019-05-17T19:45:39.331Z,18.65
2019-05-17T19:49:46.981Z,18.70
2019-05-17T19:53:54.943Z,18.51
2019-05-17T19:58:03.958Z,18.47
2019-05-17T20:02:12.623Z,18.23
2019-05-17T20:06:21.326Z,18.38
2019-05-17T20:10:29.537Z,18.17
2019-05-17T20:14:38.849Z,18.10
2019-05-17T20:18:48.079Z,17.93
2019-05-17T20:22:57.315Z,17.91
2019-05-17T20:27:05.890Z,17.99
2019-05-17T20:31:15.022Z,17.96
2019-05-17T20:35:23.847Z,18.03
2019-05-17T20:39:35.070Z,18.05
2019-05-17T20:43:43.044Z,18.02
2019-05-17T20:47:52.106Z,17.98
2019-05-17T20:52:01.946Z,18.05
2019-05-17T20:56:11.520Z,17.87
2019-05-17T21:00:20.191Z,17.74
2019-05-17T21:04:28.072Z,17.55
2019-05-17T21:08:45.773Z,17.59
2019-05-17T21:12:45.298Z,17.55
2019-05-17T21:16:52.802Z,17.74
2019-05-17T21:21:00.820Z,17.63
2019-05-17T21:25:08.413Z,17.48
2019-05-17T21:29:16.433Z,17.28
2019-05-17T21:33:24.363Z,17.28
2019-05-17T21:37:32.277Z,17.21
2019-05-17T21:41:40.169Z,17.09
2019-05-17T21:46:02.853Z,17.04
2019-05-17T21:49:58.178Z,16.99
2019-05-17T21:54:06.213Z,16.97
2019-05-17T21:58:13.701Z,17.28
2019-05-17T22:02:21.614Z,17.28
2019-05-17T22:06:29.325Z,16.84
2019-05-17T22:10:37.343Z,16.84
2019-05-17T22:14:45.149Z,16.84
2019-05-17T22:18:53.767Z,17.07
2019-05-17T22:23:01.674Z,17.11
2019-05-17T22:27:09.389Z,17.15
2019-05-17T22:31:16.907Z,17.24
2019-05-17T22:35:24.901Z,17.07
2019-05-17T22:39:32.395Z,16.90
2019-05-17T22:43:40.118Z,16.94
2019-05-17T22:47:48.324Z,16.78
2019-05-17T22:51:56.278Z,17.03
2019-05-17T22:56:04.374Z,17.03
2019-05-17T23:00:12.709Z,16.84
2019-05-17T23:04:21.279Z,16.74
2019-05-17T23:08:29.313Z,16.74
2019-05-17T23:12:37.332Z,16.64
2019-05-17T23:16:51.422Z,16.65
2019-05-17T23:20:54.736Z,16.71
2019-05-17T23:25:02.223Z,16.74
2019-05-17T23:29:09.953Z,16.63
2019-05-17T23:33:18.055Z,16.48
2019-05-17T23:37:25.535Z,16.53
2019-05-17T23:41:33.567Z,16.51
2019-05-17T23:45:41.573Z,16.38
2019-05-17T23:49:49.085Z,16.39
2019-05-17T23:53:57.076Z,16.17
2019-05-17T23:58:05.213Z,16.09
